createdAt,value
2022-10-04T00:01:00.654Z,100.00
2022-10-04T00:03:34.115Z,100.00
2022-10-04T00:06:02.599Z,100.00
2022-10-04T00:08:46.288Z,100.00
2022-10-04T00:11:18.428Z,100.00
2022-10-04T00:13:50.797Z,100.00
2022-10-04T00:16:31.710Z,100.00
2022-10-04T00:19:23.094Z,100.00
2022-10-04T00:22:12.651Z,100.00
2022-10-04T00:25:01.712Z,100.00
2022-10-04T00:27:29.244Z,100.00
2022-10-04T00:30:22.296Z,100.00
2022-10-04T00:33:05.569Z,100.00
2022-10-04T00:35:32.138Z,100.00
2022-10-04T00:38:00.030Z,100.00
2022-10-04T00:40:48.806Z,100.00
2022-10-04T00:43:20.873Z,100.00
2022-10-04T00:45:55.712Z,100.00
2022-10-04T00:48:22.374Z,100.00
2022-10-04T00:50:56.405Z,100.00
2022-10-04T00:53:41.670Z,100.00
2022-10-04T00:56:15.025Z,100.00
2022-10-04T00:58:57.499Z,100.00
2022-10-04T01:01:27.381Z,100.00
2022-10-04T01:03:57.572Z,100.00
2022-10-04T01:06:26.483Z,100.00
2022-10-04T01:08:56.134Z,100.00
2022-10-04T01:11:26.889Z,100.00
2022-10-04T01:14:08.581Z,100.00
2022-10-04T01:16:36.475Z,100.00
2022-10-04T01:19:26.575Z,100.00
2022-10-04T01:22:08.391Z,100.00
2022-10-04T01:24:37.545Z,100.00
2022-10-04T01:27:05.546Z,100.00
2022-10-04T01:29:32.601Z,100.00
2022-10-04T01:32:00.884Z,100.00
2022-10-04T01:34:30.124Z,100.00
2022-10-04T01:36:59.276Z,100.00
2022-10-04T01:39:28.165Z,100.00
2022-10-04T01:42:03.315Z,100.00
2022-10-04T01:44:44.217Z,100.00
2022-10-04T01:47:16.731Z,100.00
2022-10-04T01:49:46.824Z,100.00
2022-10-04T01:52:19.850Z,100.00
2022-10-04T01:54:52.086Z,100.00
2022-10-04T01:57:23.668Z,100.00
2022-10-04T01:59:55.258Z,100.00
2022-10-04T02:02:26.366Z,100.00
2022-10-04T02:04:56.761Z,100.00
2022-10-04T02:07:26.543Z,100.00
2022-10-04T02:09:59.562Z,100.00
2022-10-04T02:12:28.607Z,100.00
2022-10-04T02:14:56.637Z,100.00
2022-10-04T02:17:28.512Z,100.00
2022-10-04T02:19:56.835Z,100.00
2022-10-04T02:22:25.546Z,100.00
2022-10-04T02:24:55.010Z,100.00
2022-10-04T02:27:29.144Z,100.00
2022-10-04T02:30:06.494Z,100.00
2022-10-04T02:32:48.793Z,100.00
2022-10-04T02:35:16.314Z,100.00
2022-10-04T02:37:43.486Z,100.00
2022-10-04T02:40:14.114Z,100.00
2022-10-04T02:42:47.960Z,100.00
2022-10-04T02:45:21.904Z,100.00
2022-10-04T02:47:53.824Z,100.00
2022-10-04T02:50:40.058Z,100.00
2022-10-04T02:53:26.742Z,100.00
2022-10-04T02:55:55.981Z,100.00
2022-10-04T02:58:24.978Z,100.00
2022-10-04T03:00:58.264Z,100.00
2022-10-04T03:03:29.622Z,100.00
2022-10-04T03:06:08.844Z,100.00
2022-10-04T03:08:44.472Z,100.00
2022-10-04T03:11:14.052Z,100.00
2022-10-04T03:13:45.041Z,100.00
2022-10-04T03:16:12.540Z,100.00
2022-10-04T03:18:40.096Z,100.00
2022-10-04T03:21:09.953Z,100.00
2022-10-04T03:23:38.648Z,100.00
2022-10-04T03:26:06.244Z,100.00
2022-10-04T03:28:33.106Z,100.00
2022-10-04T03:31:00.757Z,100.00
2022-10-04T03:33:31.488Z,100.00
2022-10-04T03:36:03.749Z,100.00
2022-10-04T03:38:34.627Z,100.00
2022-10-04T03:41:03.141Z,100.00
2022-10-04T03:43:34.170Z,100.00
2022-10-04T03:46:02.330Z,100.00
2022-10-04T03:48:41.271Z,100.00
2022-10-04T03:51:14.627Z,100.00
2022-10-04T03:53:45.340Z,100.00
2022-10-04T03:56:18.852Z,100.00
2022-10-04T03:58:46.807Z,100.00
2022-10-04T04:01:30.301Z,100.00
2022-10-04T04:04:13.348Z,100.00
2022-10-04T04:06:48.138Z,100.00
2022-10-04T04:09:22.671Z,100.00
2022-10-04T04:11:51.013Z,100.00
2022-10-04T04:14:25.224Z,100.00
2022-10-04T04:16:54.853Z,100.00
2022-10-04T04:19:25.074Z,100.00
2022-10-04T04:21:55.297Z,100.00
2022-10-04T04:24:28.331Z,100.00
2022-10-04T04:26:59.562Z,100.00
2022-10-04T04:29:47.302Z,100.00
2022-10-04T04:32:20.801Z,100.00
2022-10-04T04:34:53.307Z,100.00
2022-10-04T04:37:20.501Z,100.00
2022-10-04T04:39:54.788Z,100.00
2022-10-04T04:42:37.989Z,100.00
2022-10-04T04:45:14.352Z,100.00
2022-10-04T04:47:46.907Z,100.00
2022-10-04T04:50:18.251Z,100.00
2022-10-04T04:52:52.031Z,100.00
2022-10-04T04:55:25.864Z,100.00
2022-10-04T04:57:56.782Z,100.00
2022-10-04T05:00:31.495Z,100.00
2022-10-04T05:03:01.142Z,100.00
2022-10-04T05:05:30.314Z,100.00
2022-10-04T05:08:18.604Z,100.00
2022-10-04T05:11:12.762Z,100.00
2022-10-04T05:13:42.707Z,100.00
2022-10-04T05:16:15.334Z,100.00
2022-10-04T05:18:42.132Z,100.00
2022-10-04T05:21:17.144Z,100.00
2022-10-04T05:23:43.879Z,100.00
2022-10-04T05:26:12.859Z,100.00
2022-10-04T05:28:39.658Z,100.00
2022-10-04T05:31:32.288Z,100.00
2022-10-04T05:33:59.257Z,100.00
2022-10-04T05:36:42.263Z,100.00
2022-10-04T05:39:22.624Z,100.00
2022-10-04T05:41:58.267Z,100.00
2022-10-04T05:44:28.797Z,100.00
2022-10-04T05:46:59.094Z,100.00
2022-10-04T05:49:31.052Z,100.00
2022-10-04T05:52:03.751Z,100.00
2022-10-04T05:54:34.202Z,100.00
2022-10-04T05:57:20.779Z,100.00
2022-10-04T06:00:06.996Z,100.00
2022-10-04T06:02:41.474Z,100.00
2022-10-04T06:05:15.847Z,100.00
2022-10-04T06:07:57.701Z,100.00
2022-10-04T06:10:50.198Z,100.00
2022-10-04T06:13:52.116Z,100.00
2022-10-04T06:16:38.682Z,100.00
2022-10-04T06:19:20.704Z,100.00
2022-10-04T06:22:20.739Z,100.00
2022-10-04T06:24:53.374Z,100.00
2022-10-04T06:27:41.793Z,100.00
2022-10-04T06:30:15.077Z,100.00
2022-10-04T06:33:14.087Z,100.00
2022-10-04T06:35:56.070Z,100.00
2022-10-04T06:38:38.360Z,100.00
2022-10-04T06:41:21.295Z,100.00
2022-10-04T06:44:03.036Z,100.00
2022-10-04T06:46:45.865Z,100.00
2022-10-04T06:49:52.264Z,100.00
2022-10-04T06:52:24.813Z,100.00
2022-10-04T06:55:21.448Z,100.00
2022-10-04T06:57:59.028Z,100.00
2022-10-04T07:00:27.603Z,100.00
2022-10-04T07:03:10.023Z,100.00
2022-10-04T07:06:07.261Z,100.00
2022-10-04T07:08:38.573Z,100.00
2022-10-04T07:11:14.054Z,100.00
2022-10-04T07:14:00.403Z,100.00
2022-10-04T07:16:38.057Z,100.00
2022-10-04T07:19:16.150Z,100.00
2022-10-04T07:22:12.242Z,100.00
2022-10-04T07:25:03.454Z,100.00
2022-10-04T07:27:42.313Z,100.00
2022-10-04T07:30:15.812Z,100.00
2022-10-04T07:32:46.762Z,100.00
2022-10-04T07:35:23.480Z,100.00
2022-10-04T07:38:17.109Z,100.00
2022-10-04T07:41:04.394Z,100.00
2022-10-04T07:43:34.220Z,100.00
2022-10-04T07:46:10.973Z,100.00
2022-10-04T07:48:40.665Z,100.00
2022-10-04T07:51:19.818Z,100.00
2022-10-04T07:53:55.832Z,100.00
2022-10-04T07:56:34.219Z,100.00
2022-10-04T07:59:20.202Z,100.00
2022-10-04T08:02:07.678Z,100.00
2022-10-04T08:04:56.268Z,100.00
2022-10-04T08:07:43.257Z,100.00
2022-10-04T08:10:23.204Z,100.00
2022-10-04T08:12:57.170Z,100.00
2022-10-04T08:15:40.473Z,100.00
2022-10-04T08:18:39.166Z,100.00
2022-10-04T08:21:09.039Z,100.00
2022-10-04T08:24:06.218Z,100.00
2022-10-04T08:27:04.425Z,100.00
2022-10-04T08:29:42.816Z,100.00
2022-10-04T08:32:24.592Z,100.00
2022-10-04T08:35:22.629Z,100.00
2022-10-04T08:38:08.731Z,100.00
2022-10-04T08:41:06.081Z,100.00
2022-10-04T08:43:46.757Z,100.00
2022-10-04T08:46:47.558Z,100.00
2022-10-04T08:49:29.619Z,100.00
2022-10-04T08:52:27.000Z,100.00
2022-10-04T08:55:13.432Z,100.00
2022-10-04T08:58:10.564Z,100.00
2022-10-04T09:00:52.477Z,100.00
2022-10-04T09:03:36.765Z,100.00
2022-10-04T09:06:18.657Z,100.00
2022-10-04T09:09:02.104Z,100.00
2022-10-04T09:11:58.374Z,100.00
2022-10-04T09:14:41.352Z,100.00
2022-10-04T09:17:36.672Z,100.00
2022-10-04T09:20:37.660Z,100.00
2022-10-04T09:23:22.703Z,100.00
2022-10-04T09:26:06.486Z,100.00
2022-10-04T09:29:05.982Z,98.60
2022-10-04T09:31:48.280Z,97.11
2022-10-04T09:34:33.822Z,95.68
2022-10-04T09:37:33.793Z,96.59
2022-10-04T09:40:26.089Z,94.82
2022-10-04T09:43:28.427Z,93.92
2022-10-04T09:46:12.062Z,93.97
2022-10-04T09:48:54.263Z,94.12
2022-10-04T09:51:54.156Z,95.01
2022-10-04T09:54:43.693Z,93.63
2022-10-04T09:57:41.193Z,90.91
2022-10-04T10:00:22.121Z,90.34
2022-10-04T10:03:12.251Z,89.92
2022-10-04T10:06:12.499Z,88.49
2022-10-04T10:08:48.702Z,87.65
2022-10-04T10:11:46.858Z,85.73
2022-10-04T10:14:34.453Z,84.69
2022-10-04T10:17:17.805Z,82.62
2022-10-04T10:20:16.817Z,83.26
2022-10-04T10:23:18.381Z,84.54
2022-10-04T10:26:02.884Z,82.52
2022-10-04T10:29:04.418Z,82.15
2022-10-04T10:31:47.699Z,81.85
2022-10-04T10:34:54.474Z,81.50
2022-10-04T10:37:37.320Z,82.46
2022-10-04T10:40:34.348Z,83.75
2022-10-04T10:43:31.352Z,81.92
2022-10-04T10:46:05.569Z,80.92
2022-10-04T10:49:02.751Z,80.24
2022-10-04T10:51:44.985Z,79.57
2022-10-04T10:54:25.284Z,78.31
2022-10-04T10:57:06.185Z,78.52
2022-10-04T10:59:50.483Z,77.94
2022-10-04T11:02:52.954Z,76.88
2022-10-04T11:05:50.129Z,77.87
2022-10-04T11:08:31.959Z,78.55
2022-10-04T11:11:29.819Z,76.38
2022-10-04T11:14:13.488Z,73.47
2022-10-04T11:17:10.571Z,72.58
2022-10-04T11:19:53.359Z,71.22
2022-10-04T11:22:44.824Z,71.46
2022-10-04T11:25:29.367Z,69.07
2022-10-04T11:28:18.468Z,67.92
2022-10-04T11:31:20.217Z,67.09
2022-10-04T11:34:09.722Z,68.60
2022-10-04T11:37:04.835Z,66.93
2022-10-04T11:39:56.113Z,64.38
2022-10-04T11:42:30.417Z,69.15
2022-10-04T11:45:17.267Z,68.76
2022-10-04T11:48:00.258Z,67.00
2022-10-04T11:50:45.011Z,65.99
2022-10-04T11:53:42.188Z,66.18
2022-10-04T11:56:18.757Z,68.52
2022-10-04T11:58:45.328Z,67.79
2022-10-04T12:01:30.402Z,66.26
2022-10-04T12:04:19.332Z,63.54
2022-10-04T12:07:22.668Z,64.97
2022-10-04T12:10:14.168Z,65.49
2022-10-04T12:12:41.768Z,63.05
2022-10-04T12:15:23.779Z,64.29
2022-10-04T12:18:24.887Z,68.27
2022-10-04T12:20:53.211Z,66.53
2022-10-04T12:23:34.261Z,66.74
2022-10-04T12:26:20.178Z,64.46
2022-10-04T12:28:59.985Z,64.72
2022-10-04T12:31:31.655Z,66.12
2022-10-04T12:34:25.305Z,65.38
2022-10-04T12:37:13.883Z,63.90
2022-10-04T12:39:53.058Z,62.83
2022-10-04T12:42:39.607Z,59.66
2022-10-04T12:45:36.823Z,58.77
2022-10-04T12:48:18.724Z,62.80
2022-10-04T12:51:05.332Z,58.13
2022-10-04T12:53:34.707Z,59.21
2022-10-04T12:56:07.967Z,58.99
2022-10-04T12:59:02.842Z,60.41
2022-10-04T13:01:36.344Z,59.14
2022-10-04T13:04:24.126Z,59.73
2022-10-04T13:07:12.267Z,58.16
2022-10-04T13:10:19.160Z,56.90
2022-10-04T13:13:12.292Z,55.10
2022-10-04T13:18:50.246Z,51.99
2022-10-04T13:21:27.712Z,54.71
2022-10-04T13:24:02.805Z,55.10
2022-10-04T13:26:42.586Z,54.92
2022-10-04T13:29:31.184Z,53.92
2022-10-04T13:32:17.865Z,55.21
2022-10-04T13:34:52.962Z,54.61
2022-10-04T13:37:41.388Z,52.76
2022-10-04T13:40:23.232Z,53.12
2022-10-04T13:43:03.787Z,53.08
2022-10-04T13:45:51.356Z,55.68
2022-10-04T13:48:42.979Z,55.80
2022-10-04T13:51:40.120Z,52.49
2022-10-04T13:54:23.028Z,54.05
2022-10-04T13:57:05.964Z,55.04
2022-10-04T13:59:44.993Z,53.75
2022-10-04T14:02:41.042Z,53.48
2022-10-04T14:05:39.157Z,52.39
2022-10-04T14:08:38.674Z,53.67
2022-10-04T14:11:35.851Z,53.41
2022-10-04T14:14:17.662Z,53.59
2022-10-04T14:17:00.491Z,52.06
2022-10-04T14:19:28.093Z,51.21
2022-10-04T14:22:04.835Z,51.48
2022-10-04T14:24:33.465Z,51.52
2022-10-04T14:27:16.585Z,52.44
2022-10-04T14:29:54.628Z,51.59
2022-10-04T14:32:36.408Z,52.82
2022-10-04T14:35:09.613Z,52.66
2022-10-04T14:38:11.475Z,51.13
2022-10-04T14:40:54.314Z,53.76
2022-10-04T14:43:56.608Z,52.84
2022-10-04T14:46:31.494Z,51.23
2022-10-04T14:48:59.058Z,53.48
2022-10-04T14:51:40.853Z,51.62
2022-10-04T14:54:09.552Z,51.38
2022-10-04T14:56:53.364Z,50.64
2022-10-04T14:59:36.564Z,50.98
2022-10-04T15:02:05.557Z,53.09
2022-10-04T15:04:32.520Z,52.38
2022-10-04T15:07:17.384Z,53.09
2022-10-04T15:09:55.741Z,52.58
2022-10-04T15:12:40.864Z,55.11
2022-10-04T15:15:13.131Z,59.54
2022-10-04T15:17:55.220Z,57.74
2022-10-04T15:20:25.994Z,55.73
2022-10-04T15:22:57.206Z,56.25
2022-10-04T15:25:40.360Z,56.35
2022-10-04T15:28:31.959Z,55.85
2022-10-04T15:31:29.244Z,54.44
2022-10-04T15:34:06.968Z,55.08
2022-10-04T15:36:38.080Z,57.18
2022-10-04T15:39:24.055Z,55.29
2022-10-04T15:42:24.941Z,54.29
2022-10-04T15:45:17.079Z,58.74
2022-10-04T15:48:14.279Z,56.65
2022-10-04T15:50:40.762Z,59.61
2022-10-04T15:53:41.020Z,60.80
2022-10-04T15:56:24.376Z,65.57
2022-10-04T15:59:22.041Z,64.59
2022-10-04T16:02:19.853Z,66.84
2022-10-04T16:05:03.537Z,65.73
2022-10-04T16:07:40.371Z,69.45
2022-10-04T16:10:37.861Z,70.29
2022-10-04T16:13:35.795Z,71.56
2022-10-04T16:16:18.073Z,73.01
2022-10-04T16:19:18.961Z,73.93
2022-10-04T16:22:16.071Z,74.49
2022-10-04T16:24:59.855Z,77.79
2022-10-04T16:27:44.260Z,78.25
2022-10-04T16:30:26.147Z,79.39
2022-10-04T16:33:13.956Z,80.01
2022-10-04T16:36:11.939Z,81.25
2022-10-04T16:39:12.059Z,81.78
2022-10-04T16:41:44.444Z,81.36
2022-10-04T16:44:37.530Z,79.94
2022-10-04T16:47:34.656Z,81.01
2022-10-04T16:50:04.889Z,81.75
2022-10-04T16:52:49.868Z,82.31
2022-10-04T16:55:38.055Z,82.61
2022-10-04T16:58:41.483Z,82.42
2022-10-04T17:01:23.537Z,82.85
2022-10-04T17:04:02.601Z,83.79
2022-10-04T17:06:49.274Z,84.47
2022-10-04T17:09:27.126Z,84.32
2022-10-04T17:11:54.759Z,83.93
2022-10-04T17:14:49.804Z,83.77
2022-10-04T17:17:36.268Z,85.22
2022-10-04T17:20:14.288Z,85.53
2022-10-04T17:23:09.377Z,84.37
2022-10-04T17:25:53.030Z,85.40
2022-10-04T17:28:30.765Z,85.01
2022-10-04T17:31:25.956Z,85.45
2022-10-04T17:34:21.736Z,86.79
2022-10-04T17:36:55.036Z,85.89
2022-10-04T17:39:41.529Z,85.81
2022-10-04T17:42:08.254Z,86.16
2022-10-04T17:44:46.728Z,86.03
2022-10-04T17:47:24.177Z,86.39
2022-10-04T17:50:07.296Z,88.10
2022-10-04T17:53:02.109Z,88.47
2022-10-04T17:55:45.875Z,89.19
2022-10-04T17:58:19.561Z,90.12
2022-10-04T18:01:07.752Z,90.43
2022-10-04T18:03:43.998Z,90.73
2022-10-04T18:06:26.184Z,90.02
2022-10-04T18:09:23.267Z,89.04
2022-10-04T18:11:52.604Z,88.98
2022-10-04T18:14:34.581Z,88.43
2022-10-04T18:17:05.171Z,88.90
2022-10-04T18:19:51.045Z,89.60
2022-10-04T18:22:19.824Z,89.08
2022-10-04T18:25:23.292Z,89.02
2022-10-04T18:28:00.001Z,90.04
2022-10-04T18:30:26.781Z,90.67
2022-10-04T18:32:57.321Z,90.91
2022-10-04T18:35:30.325Z,91.46
2022-10-04T18:38:21.016Z,90.60
2022-10-04T18:41:16.275Z,91.15
2022-10-04T18:43:58.208Z,91.68
2022-10-04T18:46:25.225Z,91.62
2022-10-04T18:48:56.825Z,90.84
2022-10-04T18:51:39.974Z,90.79
2022-10-04T18:54:06.562Z,91.64
2022-10-04T18:56:47.012Z,92.36
2022-10-04T18:59:43.141Z,92.94
2022-10-04T19:02:21.627Z,94.42
2022-10-04T19:05:18.413Z,95.19
2022-10-04T19:08:05.533Z,95.75
2022-10-04T19:10:39.900Z,94.14
2022-10-04T19:13:21.787Z,93.75
2022-10-04T19:16:11.802Z,93.19
2022-10-04T19:18:53.798Z,92.70
2022-10-04T19:21:27.694Z,92.05
2022-10-04T19:24:02.096Z,92.04
2022-10-04T19:26:33.118Z,93.60
2022-10-04T19:29:05.400Z,93.87
2022-10-04T19:31:44.763Z,94.33
2022-10-04T19:34:18.088Z,94.30
2022-10-04T19:36:46.489Z,94.39
2022-10-04T19:39:42.236Z,94.07
2022-10-04T19:42:14.189Z,94.13
2022-10-04T19:45:01.889Z,94.22
2022-10-04T19:47:43.980Z,94.29
2022-10-04T19:50:23.815Z,94.37
2022-10-04T19:53:02.769Z,95.13
2022-10-04T19:55:43.960Z,95.49
2022-10-04T19:58:26.941Z,95.97
2022-10-04T20:00:54.042Z,95.21
2022-10-04T20:03:20.808Z,94.89
2022-10-04T20:05:50.144Z,94.94
2022-10-04T20:08:44.930Z,94.98
2022-10-04T20:11:26.165Z,96.14
2022-10-04T20:14:32.619Z,95.73
2022-10-04T20:17:00.866Z,96.26
2022-10-04T20:19:27.425Z,96.35
2022-10-04T20:21:55.589Z,95.86
2022-10-04T20:24:37.526Z,96.10
2022-10-04T20:27:09.124Z,97.05
2022-10-04T20:29:36.806Z,97.62
2022-10-04T20:32:36.728Z,97.55
2022-10-04T20:35:06.263Z,96.53
2022-10-04T20:38:30.613Z,96.42
2022-10-04T20:40:50.279Z,95.89
2022-10-04T20:43:16.864Z,95.94
2022-10-04T20:45:46.474Z,95.91
2022-10-04T20:48:20.372Z,95.89
2022-10-04T20:50:49.736Z,97.01
2022-10-04T20:53:27.738Z,98.19
2022-10-04T20:56:09.247Z,98.43
2022-10-04T20:58:35.970Z,98.49
2022-10-04T21:01:19.786Z,98.73
2022-10-04T21:03:46.718Z,99.17
2022-10-04T21:06:13.361Z,99.34
2022-10-04T21:08:41.134Z,99.23
2022-10-04T21:11:20.545Z,99.25
2022-10-04T21:13:57.522Z,99.43
2022-10-04T21:16:41.340Z,99.19
2022-10-04T21:19:43.667Z,98.98
2022-10-04T21:22:32.572Z,98.28
2022-10-04T21:25:02.302Z,98.03
2022-10-04T21:27:39.734Z,98.59
2022-10-04T21:30:08.137Z,99.05
2022-10-04T21:32:36.895Z,99.47
2022-10-04T21:35:06.456Z,99.48
2022-10-04T21:37:33.843Z,100.00
2022-10-04T21:40:01.112Z,99.93
2022-10-04T21:42:28.212Z,99.74
2022-10-04T21:44:55.044Z,99.84
2022-10-04T21:47:21.832Z,99.72
2022-10-04T21:49:49.698Z,100.00
2022-10-04T21:52:18.091Z,100.00
2022-10-04T21:54:45.461Z,99.74
2022-10-04T21:57:12.453Z,99.08
2022-10-04T21:59:39.186Z,98.88
2022-10-04T22:02:07.741Z,98.95
2022-10-04T22:04:34.953Z,100.00
2022-10-04T22:07:01.782Z,100.00
2022-10-04T22:09:29.197Z,100.00
2022-10-04T22:11:56.077Z,100.00
2022-10-04T22:14:22.738Z,100.00
2022-10-04T22:16:50.141Z,100.00
2022-10-04T22:19:17.469Z,100.00
2022-10-04T22:21:44.080Z,100.00
2022-10-04T22:24:19.105Z,100.00
2022-10-04T22:26:46.758Z,100.00
2022-10-04T22:29:15.734Z,100.00
2022-10-04T22:31:49.200Z,99.60
2022-10-04T22:34:17.731Z,99.20
2022-10-04T22:36:45.116Z,98.73
2022-10-04T22:39:18.136Z,98.82
2022-10-04T22:41:48.216Z,99.04
2022-10-04T22:44:14.829Z,99.57
2022-10-04T22:46:44.642Z,100.00
2022-10-04T22:49:14.031Z,100.00
2022-10-04T22:51:42.641Z,100.00
2022-10-04T22:54:12.170Z,100.00
2022-10-04T22:56:39.320Z,100.00
2022-10-04T22:59:06.064Z,100.00
2022-10-04T23:01:32.706Z,99.89
2022-10-04T23:03:59.414Z,100.00
2022-10-04T23:06:27.894Z,100.00
2022-10-04T23:08:55.057Z,100.00
2022-10-04T23:11:21.871Z,100.00
2022-10-04T23:13:48.464Z,100.00
2022-10-04T23:16:21.033Z,100.00
2022-10-04T23:18:47.864Z,99.91
2022-10-04T23:21:21.206Z,99.98
2022-10-04T23:23:48.878Z,99.96
2022-10-04T23:26:22.124Z,100.00
2022-10-04T23:28:48.829Z,100.00
2022-10-04T23:31:26.866Z,100.00
2022-10-04T23:33:56.805Z,100.00
2022-10-04T23:36:24.772Z,100.00
2022-10-04T23:38:56.503Z,100.00
2022-10-04T23:41:26.960Z,100.00
2022-10-04T23:43:53.716Z,100.00
2022-10-04T23:46:26.608Z,100.00
2022-10-04T23:48:53.259Z,100.00
2022-10-04T23:51:20.193Z,100.00
2022-10-04T23:53:49.205Z,100.00
2022-10-04T23:56:22.229Z,100.00
2022-10-04T23:58:51.251Z,100.00
